Terminal Aerodrome Forecast
Issued by NWS Grand Forks, ND

Home | Current Version | Previous Version | Graphics & Text | Print | Product List | Glossary On
Versions: 1 2 3 4 5 6 7 8 9 10 11 12 13 14 15 16 17 18 19
000
FTUS43 KFGF 281523 AAA
TAFGFK
TAF AMD
KGFK 281523Z 2815/2912 20018G28KT P6SM SCT050 BKN250
     FM282100 22030G40KT P6SM SCT040
     FM290600 23023G30KT P6SM BKN025=

USA.gov is the U.S. government's official web portal to all federal, state and local government web resources and services.